createdAt,value
2018-05-10T00:01:50.759Z,14.78
2018-05-10T00:04:20.351Z,14.76
2018-05-10T00:06:48.701Z,14.76
2018-05-10T00:09:16.396Z,14.75
2018-05-10T00:11:46.759Z,14.71
2018-05-10T00:14:17.741Z,14.66
2018-05-10T00:16:46.215Z,14.58
2018-05-10T00:19:13.892Z,14.58
2018-05-10T00:21:41.659Z,14.56
2018-05-10T00:24:12.805Z,14.49
2018-05-10T00:26:40.653Z,14.48
2018-05-10T00:29:09.961Z,14.46
2018-05-10T00:31:39.351Z,14.42
2018-05-10T00:34:07.149Z,14.41
2018-05-10T00:36:34.814Z,14.40
2018-05-10T00:39:06.847Z,14.42
2018-05-10T00:41:36.188Z,14.45
2018-05-10T00:44:04.079Z,14.47
2018-05-10T00:46:31.613Z,14.44
2018-05-10T00:48:59.155Z,14.45
2018-05-10T00:51:26.659Z,14.47
2018-05-10T00:53:54.151Z,14.41
2018-05-10T00:56:21.634Z,14.35
2018-05-10T00:58:49.163Z,14.29
2018-05-10T01:01:16.640Z,14.27
2018-05-10T01:03:44.129Z,14.29
2018-05-10T01:06:17.676Z,14.31
2018-05-10T01:08:45.155Z,14.29
2018-05-10T01:11:12.669Z,14.25
2018-05-10T01:13:40.159Z,14.28
2018-05-10T01:29:32.454Z,13.99
2018-05-10T01:31:59.934Z,13.99
2018-05-10T01:34:27.440Z,14.02
2018-05-10T01:36:54.933Z,14.03
2018-05-10T01:39:22.487Z,14.03
2018-05-10T01:41:56.088Z,14.03
2018-05-10T01:44:23.654Z,14.01
2018-05-10T01:46:51.154Z,13.95
2018-05-10T01:49:18.642Z,13.92
2018-05-10T01:51:46.136Z,13.88
2018-05-10T01:54:19.466Z,13.80
2018-05-10T01:56:47.076Z,13.78
2018-05-10T01:59:14.640Z,13.80
2018-05-10T02:01:42.155Z,13.81
2018-05-10T02:04:09.756Z,13.85
2018-05-10T02:06:37.231Z,13.85
2018-05-10T02:09:04.735Z,13.82
2018-05-10T02:11:32.223Z,13.80
2018-05-10T02:13:59.787Z,13.80
2018-05-10T02:16:27.267Z,13.80
2018-05-10T02:18:54.767Z,13.77
2018-05-10T02:21:22.260Z,13.72
2018-05-10T02:23:49.773Z,13.74
2018-05-10T02:26:17.254Z,13.72
2018-05-10T02:28:48.391Z,13.71
2018-05-10T02:31:15.980Z,13.67
2018-05-10T02:33:43.491Z,13.64
2018-05-10T02:36:11.091Z,13.58
2018-05-10T02:38:38.586Z,13.51
2018-05-10T02:41:09.188Z,13.48
2018-05-10T02:43:36.660Z,13.43
2018-05-10T02:46:05.981Z,13.39
2018-05-10T02:48:33.452Z,13.37
2018-05-10T02:51:01.133Z,13.36
2018-05-10T02:53:28.644Z,13.32
2018-05-10T02:55:56.144Z,13.30
2018-05-10T02:58:23.736Z,13.28
2018-05-10T03:00:51.214Z,13.26
2018-05-10T03:03:18.766Z,13.24
2018-05-10T03:05:46.252Z,13.24
2018-05-10T03:08:13.774Z,13.22
2018-05-10T03:10:41.274Z,13.23
2018-05-10T03:13:18.444Z,13.25
2018-05-10T03:15:45.914Z,13.27
2018-05-10T03:18:13.433Z,13.29
2018-05-10T03:20:41.872Z,13.28
2018-05-10T03:23:09.383Z,13.28
2018-05-10T03:25:36.896Z,13.26
2018-05-10T03:28:04.396Z,13.23
2018-05-10T03:30:31.917Z,13.20
2018-05-10T03:33:01.228Z,13.18
2018-05-10T03:35:28.731Z,13.17
2018-05-10T03:37:56.211Z,13.14
2018-05-10T03:40:23.731Z,13.12
2018-05-10T03:42:51.245Z,13.11
2018-05-10T03:45:18.777Z,13.01
2018-05-10T03:47:46.278Z,12.94
2018-05-10T03:50:13.828Z,12.91
2018-05-10T03:52:41.334Z,12.88
2018-05-10T03:55:08.936Z,12.84
2018-05-10T03:57:36.452Z,12.80
2018-05-10T04:00:03.937Z,12.73
2018-05-10T04:02:43.260Z,12.68
2018-05-10T04:05:18.566Z,12.70
2018-05-10T04:07:58.133Z,12.69
2018-05-10T04:10:43.053Z,12.66
2018-05-10T04:13:10.557Z,12.63
2018-05-10T04:15:38.059Z,12.65
2018-05-10T04:18:05.605Z,12.66
2018-05-10T04:20:33.086Z,12.69
2018-05-10T04:23:00.595Z,12.75
2018-05-10T04:25:28.080Z,12.82
2018-05-10T04:27:59.455Z,12.90
2018-05-10T04:30:27.029Z,13.00
2018-05-10T04:32:54.525Z,13.08
2018-05-10T04:35:22.033Z,13.13
2018-05-10T04:37:49.535Z,13.17
2018-05-10T04:40:20.235Z,13.22
2018-05-10T04:42:47.723Z,13.26
2018-05-10T04:45:19.147Z,13.28
2018-05-10T04:47:46.635Z,13.30
2018-05-10T04:50:14.158Z,13.32
2018-05-10T04:52:41.645Z,13.36
2018-05-10T04:55:09.135Z,13.41
2018-05-10T04:57:36.637Z,13.42
2018-05-10T05:00:04.233Z,13.41
2018-05-10T05:02:31.753Z,13.46
2018-05-10T05:04:59.311Z,13.52
2018-05-10T05:07:26.813Z,13.55
2018-05-10T05:09:54.321Z,13.64
2018-05-10T05:12:21.831Z,13.72
2018-05-10T05:14:49.335Z,13.77
2018-05-10T05:17:18.637Z,13.84
2018-05-10T05:19:46.201Z,13.90
2018-05-10T05:22:13.708Z,13.94
2018-05-10T05:24:41.216Z,13.98
2018-05-10T05:27:08.722Z,14.02
2018-05-10T05:29:36.341Z,14.05
2018-05-10T05:32:03.841Z,14.09
2018-05-10T05:34:31.343Z,14.14
2018-05-10T05:36:58.874Z,14.18
2018-05-10T05:39:26.375Z,14.24
2018-05-10T05:41:53.933Z,14.27
2018-05-10T05:44:23.815Z,14.33
2018-05-10T05:46:51.330Z,14.39
2018-05-10T05:51:54.524Z,14.40
2018-05-10T05:54:27.870Z,14.43
2018-05-10T05:56:55.474Z,14.51
2018-05-10T05:59:22.967Z,14.60
2018-05-10T06:01:50.467Z,14.69
2018-05-10T06:04:17.991Z,14.78
2018-05-10T06:06:45.477Z,14.83
2018-05-10T06:09:13.009Z,14.92
2018-05-10T06:11:40.519Z,14.98
2018-05-10T06:14:08.042Z,15.05
2018-05-10T06:16:35.532Z,15.13
2018-05-10T06:19:03.043Z,15.25
2018-05-10T06:21:30.563Z,15.34
2018-05-10T06:23:58.064Z,15.40
2018-05-10T06:26:25.573Z,15.43
2018-05-10T06:28:53.066Z,15.50
2018-05-10T06:31:20.600Z,15.57
2018-05-10T06:33:48.083Z,15.66
2018-05-10T06:36:15.703Z,15.77
2018-05-10T06:38:44.061Z,15.86
2018-05-10T06:41:11.579Z,15.89
2018-05-10T06:43:39.919Z,15.91
2018-05-10T06:46:07.480Z,15.97
2018-05-10T06:48:34.984Z,16.07
2018-05-10T06:51:02.539Z,16.19
2018-05-10T06:53:30.079Z,16.27
2018-05-10T06:55:57.586Z,16.33
2018-05-10T06:58:25.121Z,16.38
2018-05-10T07:00:52.612Z,16.46
2018-05-10T07:03:20.197Z,16.55
2018-05-10T07:05:47.671Z,16.65
2018-05-10T07:08:24.844Z,16.73
2018-05-10T07:10:52.348Z,16.83
2018-05-10T07:13:19.829Z,16.89
2018-05-10T07:15:47.383Z,16.98
2018-05-10T07:18:14.914Z,17.07
2018-05-10T07:20:42.494Z,17.14
2018-05-10T07:23:16.189Z,17.18
2018-05-10T07:25:43.697Z,17.23
2018-05-10T07:28:11.249Z,17.30
2018-05-10T07:30:39.492Z,17.43
2018-05-10T07:33:07.000Z,17.55
2018-05-10T07:35:34.524Z,17.65
2018-05-10T07:38:02.022Z,17.75
2018-05-10T07:40:29.552Z,17.84
2018-05-10T07:42:57.092Z,17.85
2018-05-10T07:45:24.594Z,17.88
2018-05-10T07:47:52.136Z,17.93
2018-05-10T07:50:19.650Z,17.92
2018-05-10T07:52:47.354Z,18.02
2018-05-10T07:55:21.296Z,18.06
2018-05-10T07:57:52.137Z,18.23
2018-05-10T08:00:20.737Z,18.39
2018-05-10T08:02:48.256Z,18.47
2018-05-10T08:05:15.797Z,18.59
2018-05-10T08:07:43.300Z,18.64
2018-05-10T08:10:10.858Z,18.73
2018-05-10T08:12:38.371Z,18.79
2018-05-10T08:15:05.898Z,18.78
2018-05-10T08:17:33.385Z,18.79
2018-05-10T08:20:00.949Z,18.87
2018-05-10T08:22:28.456Z,18.92
2018-05-10T08:24:55.993Z,19.05
2018-05-10T08:27:23.507Z,19.14
2018-05-10T08:29:51.092Z,19.28
2018-05-10T08:32:31.569Z,19.46
2018-05-10T08:34:59.105Z,19.62
2018-05-10T08:37:26.629Z,19.76
2018-05-10T08:39:54.225Z,19.88
2018-05-10T08:42:21.786Z,19.94
2018-05-10T08:44:49.276Z,20.08
2018-05-10T08:47:16.804Z,20.16
2018-05-10T08:49:44.351Z,20.12
2018-05-10T08:52:11.918Z,20.12
2018-05-10T08:54:39.448Z,20.22
2018-05-10T08:57:06.949Z,20.42
2018-05-10T09:02:32.914Z,20.61
2018-05-10T09:05:10.066Z,20.60
2018-05-10T09:07:39.549Z,20.70
2018-05-10T09:10:17.054Z,20.74
2018-05-10T09:13:06.128Z,20.75
2018-05-10T09:15:34.761Z,20.76
2018-05-10T09:18:04.778Z,20.82
2018-05-10T09:20:32.384Z,20.90
2018-05-10T09:23:04.918Z,20.96
2018-05-10T09:25:34.764Z,21.04
2018-05-10T09:28:02.266Z,21.08
2018-05-10T09:30:30.425Z,21.18
2018-05-10T09:33:00.553Z,21.29
2018-05-10T09:35:28.157Z,21.38
2018-05-10T09:38:12.591Z,21.44
2018-05-10T09:40:40.105Z,21.54
2018-05-10T09:43:08.050Z,21.72
2018-05-10T09:45:39.600Z,21.79
2018-05-10T09:48:07.104Z,21.90
2018-05-10T09:50:34.697Z,21.99
2018-05-10T09:53:02.304Z,22.21
2018-05-10T09:55:37.493Z,22.32
2018-05-10T09:58:05.081Z,22.42
2018-05-10T10:00:34.006Z,22.40
2018-05-10T10:03:04.698Z,22.46
2018-05-10T10:05:36.034Z,22.56
2018-05-10T10:08:05.094Z,22.63
2018-05-10T10:13:08.473Z,22.72
2018-05-10T10:18:11.498Z,23.12
2018-05-10T10:20:40.460Z,23.23
2018-05-10T10:23:07.949Z,22.87
2018-05-10T10:25:41.573Z,22.64
2018-05-10T10:28:18.042Z,22.51
2018-05-10T10:30:49.657Z,22.69
2018-05-10T10:33:17.443Z,22.94
2018-05-10T10:35:52.662Z,22.92
2018-05-10T10:38:21.786Z,22.79
2018-05-10T10:40:49.951Z,22.56
2018-05-10T10:48:47.420Z,22.82
2018-05-10T10:51:18.577Z,22.98
2018-05-10T10:53:54.015Z,22.88
2018-05-10T10:56:25.740Z,22.78
2018-05-10T10:59:00.548Z,22.54
2018-05-10T11:01:42.943Z,22.31
2018-05-10T11:04:14.271Z,22.29
2018-05-10T11:09:34.350Z,22.82
2018-05-10T11:12:01.885Z,22.81
2018-05-10T11:14:29.372Z,22.99
2018-05-10T11:16:58.682Z,23.35
2018-05-10T11:19:26.232Z,23.64
2018-05-10T11:22:00.689Z,23.79
2018-05-10T11:24:29.855Z,23.86
2018-05-10T11:26:59.761Z,24.04
2018-05-10T11:56:47.169Z,23.37
2018-05-10T11:59:14.711Z,23.64
2018-05-10T12:01:45.065Z,23.98
2018-05-10T12:04:12.628Z,24.26
2018-05-10T12:06:40.268Z,24.31
2018-05-10T12:09:07.798Z,24.55
2018-05-10T12:11:35.359Z,24.21
2018-05-10T12:14:03.038Z,24.17
2018-05-10T12:16:31.332Z,24.31
2018-05-10T12:18:58.865Z,24.43
2018-05-10T12:21:26.423Z,24.54
2018-05-10T12:23:55.541Z,24.52
2018-05-10T12:26:23.128Z,24.59
2018-05-10T12:28:50.675Z,24.71
2018-05-10T12:31:18.270Z,24.41
2018-05-10T12:33:48.391Z,24.24
2018-05-10T12:36:15.942Z,24.23
2018-05-10T12:38:43.508Z,23.84
2018-05-10T12:41:11.044Z,23.83
2018-05-10T12:43:38.717Z,23.90
2018-05-10T12:46:06.247Z,23.65
2018-05-10T12:48:33.936Z,23.33
2018-05-10T12:54:04.620Z,22.89
2018-05-10T12:56:32.366Z,22.70
2018-05-10T12:58:59.984Z,22.99
2018-05-10T13:01:27.539Z,23.41
2018-05-10T13:03:55.224Z,23.38
2018-05-10T13:06:22.761Z,23.56
2018-05-10T13:08:50.350Z,23.86
2018-05-10T13:11:17.909Z,23.95
2018-05-10T13:13:45.676Z,23.81
2018-05-10T13:16:13.227Z,23.92
2018-05-10T13:18:40.786Z,23.77
2018-05-10T13:21:08.365Z,23.74
2018-05-10T13:23:35.904Z,23.64
2018-05-10T13:26:03.467Z,23.50
2018-05-10T13:28:31.004Z,23.32
2018-05-10T13:30:59.601Z,23.24
2018-05-10T13:33:29.346Z,23.22
2018-05-10T13:35:56.916Z,23.11
2018-05-10T13:38:24.529Z,23.16
2018-05-10T13:40:53.890Z,23.19
2018-05-10T13:43:21.441Z,23.03
2018-05-10T13:45:49.022Z,23.20
2018-05-10T13:48:18.196Z,23.25
2018-05-10T13:50:45.729Z,23.30
2018-05-10T13:53:13.377Z,23.50
2018-05-10T13:55:41.666Z,24.22
2018-05-10T13:58:09.222Z,24.72
2018-05-10T14:00:36.743Z,24.89
2018-05-10T14:03:04.380Z,25.40
2018-05-10T14:05:32.000Z,26.12
2018-05-10T14:07:59.601Z,26.92
2018-05-10T14:10:27.135Z,27.23
2018-05-10T14:12:54.667Z,27.04
2018-05-10T14:15:22.230Z,26.16
2018-05-10T14:17:49.917Z,25.78
2018-05-10T14:20:17.791Z,25.22
2018-05-10T14:22:45.316Z,25.62
2018-05-10T14:25:12.918Z,25.51
2018-05-10T14:27:40.463Z,24.99
2018-05-10T14:30:08.077Z,24.48
2018-05-10T14:32:36.560Z,24.40
2018-05-10T14:35:04.314Z,24.10
2018-05-10T14:37:31.857Z,24.07
2018-05-10T14:40:03.114Z,24.19
2018-05-10T14:42:30.941Z,24.09
2018-05-10T14:44:58.670Z,24.32
2018-05-10T14:47:26.640Z,24.67
2018-05-10T14:49:54.271Z,25.10
2018-05-10T14:52:22.015Z,24.93
2018-05-10T14:54:49.551Z,24.72
2018-05-10T14:57:17.188Z,24.57
2018-05-10T14:59:44.768Z,24.13
2018-05-10T15:02:12.759Z,24.38
2018-05-10T15:04:40.823Z,24.47
2018-05-10T15:07:09.427Z,24.16
2018-05-10T15:09:37.015Z,23.93
2018-05-10T15:12:04.869Z,23.89
2018-05-10T15:14:32.438Z,23.88
2018-05-10T15:16:59.986Z,23.98
2018-05-10T15:19:27.535Z,24.18
2018-05-10T15:21:57.773Z,24.14
2018-05-10T15:24:25.721Z,24.12
2018-05-10T15:26:55.131Z,23.91
2018-05-10T15:29:23.416Z,23.63
2018-05-10T15:31:53.730Z,23.35
2018-05-10T15:34:21.639Z,23.16
2018-05-10T15:36:49.457Z,23.04
2018-05-10T15:39:18.913Z,23.00
2018-05-10T15:41:47.920Z,22.99
2018-05-10T15:44:15.579Z,23.10
2018-05-10T15:46:43.150Z,23.25
2018-05-10T15:49:12.789Z,22.94
2018-05-10T15:51:40.421Z,23.14
2018-05-10T15:54:09.640Z,23.26
2018-05-10T15:56:37.203Z,23.32
2018-05-10T15:59:04.738Z,23.09
2018-05-10T16:01:32.275Z,22.92
2018-05-10T16:03:59.947Z,22.75
2018-05-10T16:06:27.530Z,22.50
2018-05-10T16:08:55.095Z,22.46
2018-05-10T16:11:22.774Z,22.53
2018-05-10T16:13:50.396Z,22.53
2018-05-10T16:16:17.931Z,22.47
2018-05-10T16:18:45.527Z,22.07
2018-05-10T16:21:13.062Z,21.94
2018-05-10T16:23:42.418Z,21.85
2018-05-10T16:26:09.969Z,21.91
2018-05-10T16:28:37.539Z,21.71
2018-05-10T16:31:05.812Z,21.32
2018-05-10T16:33:33.410Z,21.18
2018-05-10T16:36:01.220Z,21.07
2018-05-10T16:38:28.763Z,21.08
2018-05-10T16:40:56.456Z,21.18
2018-05-10T16:43:24.101Z,21.18
2018-05-10T16:45:51.650Z,21.12
2018-05-10T16:48:19.214Z,21.07
2018-05-10T16:50:50.574Z,21.07
2018-05-10T16:53:18.161Z,20.93
2018-05-10T16:55:45.754Z,20.82
2018-05-10T16:58:13.380Z,20.64
2018-05-10T17:00:41.140Z,20.43
2018-05-10T17:03:08.777Z,20.35
2018-05-10T17:05:36.382Z,20.36
2018-05-10T17:08:04.062Z,20.38
2018-05-10T17:10:32.324Z,20.42
2018-05-10T17:13:01.712Z,20.41
2018-05-10T17:15:30.055Z,20.41
2018-05-10T17:17:57.615Z,20.39
2018-05-10T17:20:25.161Z,20.31
2018-05-10T17:22:52.753Z,20.27
2018-05-10T17:25:20.451Z,20.24
2018-05-10T17:27:48.034Z,20.03
2018-05-10T17:30:15.731Z,19.83
2018-05-10T17:32:43.296Z,19.77
2018-05-10T17:35:10.818Z,19.65
2018-05-10T17:37:40.126Z,19.58
2018-05-10T17:40:07.710Z,19.55
2018-05-10T17:42:37.145Z,19.51
2018-05-10T17:45:06.059Z,19.51
2018-05-10T17:47:33.712Z,19.52
2018-05-10T17:50:01.618Z,19.51
2018-05-10T17:52:29.457Z,19.45
2018-05-10T17:54:57.109Z,19.40
2018-05-10T17:57:24.688Z,19.39
2018-05-10T17:59:52.210Z,19.38
2018-05-10T18:02:22.439Z,19.34
2018-05-10T18:04:50.003Z,19.30
2018-05-10T18:07:17.585Z,19.28
2018-05-10T18:09:46.501Z,19.21
2018-05-10T18:12:14.172Z,19.13
2018-05-10T18:14:41.856Z,19.07
2018-05-10T18:17:11.133Z,19.03
2018-05-10T18:19:38.720Z,18.99
2018-05-10T18:22:06.260Z,18.63
2018-05-10T18:24:34.653Z,18.41
2018-05-10T18:27:02.298Z,18.24
2018-05-10T18:29:29.857Z,17.91
2018-05-10T18:31:57.497Z,17.74
2018-05-10T18:36:52.931Z,17.56
2018-05-10T18:39:20.676Z,17.45
2018-05-10T18:41:50.016Z,17.38
2018-05-10T18:44:17.591Z,17.29
2018-05-10T18:46:45.201Z,17.23
2018-05-10T19:02:13.677Z,17.05
2018-05-10T19:04:41.716Z,17.00
2018-05-10T19:07:09.270Z,17.02
2018-05-10T19:09:37.632Z,17.06
2018-05-10T19:12:07.038Z,17.11
2018-05-10T19:14:34.571Z,17.06
2018-05-10T19:17:02.155Z,17.02
2018-05-10T19:19:29.715Z,16.99
2018-05-10T19:21:57.311Z,16.99
2018-05-10T19:24:25.503Z,16.95
2018-05-10T19:26:53.058Z,16.89
2018-05-10T19:29:20.609Z,16.84
2018-05-10T19:31:48.224Z,16.85
2018-05-10T19:34:18.353Z,16.85
2018-05-10T19:36:46.965Z,16.84
2018-05-10T19:39:14.539Z,16.86
2018-05-10T19:41:42.097Z,16.92
2018-05-10T19:44:09.719Z,16.88
2018-05-10T19:46:37.279Z,16.84
2018-05-10T19:49:05.382Z,16.84
2018-05-10T19:51:32.918Z,16.87
2018-05-10T19:54:00.479Z,16.81
2018-05-10T19:56:28.053Z,16.75
2018-05-10T19:58:55.623Z,16.68
2018-05-10T20:01:25.069Z,16.66
2018-05-10T20:03:54.801Z,16.65
2018-05-10T20:06:22.371Z,16.67
2018-05-10T20:08:49.927Z,16.64
2018-05-10T20:11:17.635Z,16.50
2018-05-10T20:13:45.267Z,16.39
2018-05-10T20:16:12.794Z,16.40
2018-05-10T20:18:40.424Z,16.33
2018-05-10T20:21:08.934Z,16.28
2018-05-10T20:23:36.459Z,16.18
2018-05-10T20:26:04.147Z,16.18
2018-05-10T20:28:32.756Z,16.04
2018-05-10T20:31:02.063Z,15.98
2018-05-10T20:33:29.703Z,15.92
2018-05-10T20:35:57.229Z,15.84
2018-05-10T20:38:24.774Z,15.80
2018-05-10T20:40:52.450Z,15.67
2018-05-10T20:43:20.000Z,15.58
2018-05-10T20:45:47.635Z,15.50
2018-05-10T20:48:15.145Z,15.37
2018-05-10T20:50:44.608Z,15.20
2018-05-10T20:53:12.114Z,15.13
2018-05-10T20:55:40.371Z,15.07
2018-05-10T20:58:08.021Z,15.01
2018-05-10T21:00:36.365Z,14.99
2018-05-10T21:03:03.927Z,14.89
2018-05-10T21:05:31.479Z,14.78
2018-05-10T21:07:59.067Z,14.71
2018-05-10T21:10:26.617Z,14.75
2018-05-10T21:12:56.399Z,14.78
2018-05-10T21:15:24.084Z,14.74
2018-05-10T21:17:51.689Z,14.68
2018-05-10T21:20:19.222Z,14.52
2018-05-10T21:22:46.905Z,14.47
2018-05-10T21:25:15.494Z,14.49
2018-05-10T21:27:43.161Z,14.56
2018-05-10T21:30:10.727Z,14.48
2018-05-10T21:32:38.305Z,14.35
2018-05-10T21:35:05.887Z,14.34
2018-05-10T21:37:35.030Z,14.27
2018-05-10T21:40:02.725Z,14.27
2018-05-10T21:42:30.253Z,14.26
2018-05-10T21:44:57.814Z,14.26
2018-05-10T21:47:25.358Z,14.20
2018-05-10T21:50:01.859Z,14.23
2018-05-10T21:52:29.513Z,14.19
2018-05-10T21:54:57.152Z,14.18
2018-05-10T21:57:24.701Z,14.15
2018-05-10T21:59:52.235Z,14.07
2018-05-10T22:02:20.770Z,13.94
2018-05-10T22:04:48.406Z,13.98
2018-05-10T22:07:15.959Z,13.95
2018-05-10T22:09:43.497Z,13.95
2018-05-10T22:12:11.157Z,13.95
2018-05-10T22:14:38.668Z,13.93
2018-05-10T22:17:06.245Z,13.94
2018-05-10T22:19:33.899Z,13.89
2018-05-10T22:22:02.481Z,13.85
2018-05-10T22:24:30.132Z,13.84
2018-05-10T22:26:58.888Z,13.88
2018-05-10T22:29:26.587Z,13.89
2018-05-10T22:31:54.113Z,13.89
2018-05-10T22:34:21.810Z,13.89
2018-05-10T22:36:49.471Z,13.87
2018-05-10T22:39:17.043Z,13.92
2018-05-10T22:41:44.571Z,13.95
2018-05-10T22:44:12.875Z,13.92
2018-05-10T22:46:40.651Z,13.93
2018-05-10T22:49:08.183Z,13.93
2018-05-10T22:51:37.469Z,13.92
2018-05-10T22:54:05.033Z,13.95
2018-05-10T22:56:32.591Z,13.93
2018-05-10T22:59:00.106Z,13.79
2018-05-10T23:01:28.698Z,13.77
2018-05-10T23:03:56.279Z,13.74
2018-05-10T23:06:23.859Z,13.79
2018-05-10T23:08:51.391Z,13.84
2018-05-10T23:11:18.961Z,13.85
2018-05-10T23:13:46.508Z,13.79
2018-05-10T23:16:14.205Z,13.83
2018-05-10T23:18:41.843Z,13.75
2018-05-10T23:21:09.507Z,13.73
2018-05-10T23:23:37.131Z,13.72
2018-05-10T23:26:04.769Z,13.67
2018-05-10T23:28:32.408Z,13.67
2018-05-10T23:30:59.935Z,13.71
2018-05-10T23:33:27.822Z,13.79
2018-05-10T23:35:59.270Z,13.80
2018-05-10T23:38:26.968Z,13.73
2018-05-10T23:40:54.490Z,13.73
2018-05-10T23:43:22.017Z,13.72
2018-05-10T23:45:49.651Z,13.71
2018-05-10T23:48:17.169Z,13.71
2018-05-10T23:50:45.491Z,13.71
2018-05-10T23:53:13.032Z,13.74
2018-05-10T23:55:40.599Z,13.74
2018-05-10T23:58:08.116Z,13.72
